Rockland, ME (04841)

7:05 PM EDT on May 28, 2017 (GMT -0400)
Journeys End Marina | | Change Station
Active Advisory: Coastal Flood Statement Active Notice: Coastal Flood Statement

Elev 10 ft 44.10 °N, 69.10 °W | Updated 2 minutes ago

Clear
Clear
49.6 °F
Feels Like 48 °F
N
5.0
Wind Variable Wind from SW
Gusts 7.0 mph

Today
High -- | Low -- °F
--% Chance of Precip.
Yesterday
High -- | Low -- °F
Precip. -- in
Pressure 30.04 in
Visibility 10.0 miles
Clouds Clear
Windchill 48 °F
Dew Point 44 °F
Humidity 80%
Rainfall 0.00 in
Snow Depth Not available.
4:58 AM 8:09 PM
Waxing Crescent, 14% visible
METAR KRKD 282256Z AUTO 20006KT 10SM CLR 10/07 A3003 RMK AO2 SLP170 T01000072
Pressure 30.04 in
Visibility 10.0 miles
Clouds Clear
Windchill 48 °F
Dew Point 44 °F
Humidity 80%
Rainfall 0.00 in
Snow Depth Not available.
4:58 AM 8:09 PM
Waxing Crescent, 14% visible
METAR KRKD 282256Z AUTO 20006KT 10SM CLR 10/07 A3003 RMK AO2 SLP170 T01000072

Get Your Daily Forecast Email!

Thanks for signing up!

Be on the lookout for a verification email in your inbox.

You'll start receiving severe weather alerts in your inbox..

×

10-Day Weather Forecast

Almanac

Astronomy

May. 28, 2017 Rise Set
Actual Time
Civil Twilight
Nautical Twilight
Astronomical Twilight
Moon
Length of Visible Light
Length of Day
Tomorrow will be .
, % of the Moon is Illuminated

Today's Extremes

State Highs State Lows

Community

WunderPhotos

Category 6

Welcome to Category 6. This is the collective home for Weather Underground's featured writeups by Dr. Jeff Masters (right), Bob Henson (left), Chris Burt, and other regular contributors.

Nearby

Air Quality

  Air Quality AQ Index Pollutant
Not available.

Snow Depth

Station Depth Elevation

Earthquake Activity

City Distance Mag. Time & Date
Minimum magnitude displayed is 2.5.

Coastal Water Temperatures

Place Temperature

Stations

Nearby Weather Stations

Station Location Temp. Windchill Dew Point Humidity Wind Precip. Elev Updated Type
                   

Watches & Warnings

Coastal Flood Statement
Issued: 2:45 PM EDT May. 28, 2017 – National Weather Service

... Minor splash-over and isolated minor coastal flooding expected
around the time of high tide late tonight...

* location... the southwest and midcoast of Maine and seacoast of
New Hampshire.

* Coastal flooding and splash-over... minor.

* Timing... near the time of high tide around 2 am.

* Impacts... minor flooding may occur along the wharf side
streets and parking lots in Portland, Granite Point Road in
Biddeford and the backbay area of Hampton. Minor splash-over
may occur in Saco near the time of high tide.